sensor_id;sensor_type;location;lat;lon;timestamp;pressure;altitude;pressure_sealevel;temperature;humidity
48976;BME280;34791;52.752;8.346;2023-02-23T00:01:55;149174.44;;;6.83;100.00
48976;BME280;34791;52.752;8.346;2023-02-23T00:04:22;149214.47;;;6.99;100.00
48976;BME280;34791;52.752;8.346;2023-02-23T00:06:48;149233.84;;;7.07;100.00
48976;BME280;34791;52.752;8.346;2023-02-23T00:09:16;149246.72;;;7.12;100.00
48976;BME280;34791;52.752;8.346;2023-02-23T00:11:53;149259.69;;;7.17;100.00
48976;BME280;34791;52.752;8.346;2023-02-23T00:14:20;149282.88;;;7.26;100.00
48976;BME280;34791;52.752;8.346;2023-02-23T00:16:48;149276.44;;;7.23;100.00
48976;BME280;34791;52.752;8.346;2023-02-23T00:19:14;149275.16;;;7.23;100.00
48976;BME280;34791;52.752;8.346;2023-02-23T00:21:40;149272.56;;;7.22;100.00
48976;BME280;34791;52.752;8.346;2023-02-23T00:24:08;149286.81;;;7.27;100.00
48976;BME280;34791;52.752;8.346;2023-02-23T00:26:35;149260.97;;;7.17;100.00
48976;BME280;34791;52.752;8.346;2023-02-23T00:29:03;149297.13;;;7.31;100.00
48976;BME280;34791;52.752;8.346;2023-02-23T00:31:29;149313.88;;;7.38;100.00
48976;BME280;34791;52.752;8.346;2023-02-23T00:33:57;149334.56;;;7.46;100.00
48976;BME280;34791;52.752;8.346;2023-02-23T00:36:26;149360.41;;;7.56;100.00
48976;BME280;34791;52.752;8.346;2023-02-23T00:38:53;149360.41;;;7.56;100.00
48976;BME280;34791;52.752;8.346;2023-02-23T00:41:19;149364.28;;;7.58;100.00
48976;BME280;34791;52.752;8.346;2023-02-23T00:43:47;149365.56;;;7.58;100.00
48976;BME280;34791;52.752;8.346;2023-02-23T00:46:14;149373.31;;;7.61;100.00
48976;BME280;34791;52.752;8.346;2023-02-23T00:48:44;149378.53;;;7.63;100.00
48976;BME280;34791;52.752;8.346;2023-02-23T00:51:11;149388.84;;;7.68;100.00
48976;BME280;34791;52.752;8.346;2023-02-23T00:53:36;149396.56;;;7.71;100.00
48976;BME280;34791;52.752;8.346;2023-02-23T00:56:06;149406.91;;;7.75;100.00
48976;BME280;34791;52.752;8.346;2023-02-23T00:58:33;149403.03;;;7.73;100.00
48976;BME280;34791;52.752;8.346;2023-02-23T01:00:58;149403.03;;;7.73;100.00
48976;BME280;34791;52.752;8.346;2023-02-23T01:03:25;149409.53;;;7.76;100.00
48976;BME280;34791;52.752;8.346;2023-02-23T01:05:50;149410.81;;;7.76;100.00
48976;BME280;34791;52.752;8.346;2023-02-23T01:08:17;149418.56;;;7.79;100.00
48976;BME280;34791;52.752;8.346;2023-02-23T01:10:43;149421.13;;;7.80;100.00
48976;BME280;34791;52.752;8.346;2023-02-23T01:13:09;149425.00;;;7.82;100.00
48976;BME280;34791;52.752;8.346;2023-02-23T01:15:41;149430.16;;;7.84;100.00
48976;BME280;34791;52.752;8.346;2023-02-23T01:18:08;149440.53;;;7.88;100.00
48976;BME280;34791;52.752;8.346;2023-02-23T01:20:34;149450.84;;;7.92;100.00
48976;BME280;34791;52.752;8.346;2023-02-23T01:23:01;149453.44;;;7.93;100.00
48976;BME280;34791;52.752;8.346;2023-02-23T01:25:27;149458.59;;;7.95;100.00
48976;BME280;34791;52.752;8.346;2023-02-23T01:27:55;149459.88;;;7.96;100.00
48976;BME280;34791;52.752;8.346;2023-02-23T01:30:20;149466.34;;;7.98;100.00
48976;BME280;34791;52.752;8.346;2023-02-23T01:32:46;149471.56;;;8.00;100.00
48976;BME280;34791;52.752;8.346;2023-02-23T01:35:12;149479.28;;;8.03;100.00
48976;BME280;34791;52.752;8.346;2023-02-23T01:37:40;149481.88;;;8.04;100.00
48976;BME280;34791;52.752;8.346;2023-02-23T01:40:14;149484.44;;;8.05;100.00
48976;BME280;34791;52.752;8.346;2023-02-23T01:42:43;149487.03;;;8.06;100.00
48976;BME280;34791;52.752;8.346;2023-02-23T01:47:55;149498.66;;;8.11;100.00
48976;BME280;34791;52.752;8.346;2023-02-23T01:50:23;149492.19;;;8.08;100.00
48976;BME280;34791;52.752;8.346;2023-02-23T01:52:51;149501.28;;;8.12;100.00
48976;BME280;34791;52.752;8.346;2023-02-23T01:55:20;149479.28;;;8.03;100.00
48976;BME280;34791;52.752;8.346;2023-02-23T01:57:58;149484.44;;;8.05;100.00
48976;BME280;34791;52.752;8.346;2023-02-23T02:00:26;149480.59;;;8.04;100.00
48976;BME280;34791;52.752;8.346;2023-02-23T02:02:53;149480.59;;;8.04;100.00
48976;BME280;34791;52.752;8.346;2023-02-23T02:05:19;149459.88;;;7.96;100.00
48976;BME280;34791;52.752;8.346;2023-02-23T02:07:46;149466.34;;;7.98;100.00
48976;BME280;34791;52.752;8.346;2023-02-23T02:10:13;149466.34;;;7.98;100.00
48976;BME280;34791;52.752;8.346;2023-02-23T02:12:48;149463.75;;;7.97;100.00
48976;BME280;34791;52.752;8.346;2023-02-23T02:15:17;149463.75;;;7.97;100.00
48976;BME280;34791;52.752;8.346;2023-02-23T02:18:14;149458.59;;;7.95;100.00
48976;BME280;34791;52.752;8.346;2023-02-23T02:37:30;149421.13;;;7.80;100.00
48976;BME280;34791;52.752;8.346;2023-02-23T02:42:59;149454.72;;;7.93;100.00
48976;BME280;34791;52.752;8.346;2023-02-23T02:45:43;149430.16;;;7.84;100.00
48976;BME280;34791;52.752;8.346;2023-02-23T02:50:53;149417.28;;;7.79;100.00
48976;BME280;34791;52.752;8.346;2023-02-23T02:53:27;149417.28;;;7.79;100.00
48976;BME280;34791;52.752;8.346;2023-02-23T02:55:55;149413.41;;;7.77;100.00
48976;BME280;34791;52.752;8.346;2023-02-23T02:58:24;149425.00;;;7.82;100.00
48976;BME280;34791;52.752;8.346;2023-02-23T03:00:51;149419.84;;;7.80;100.00
48976;BME280;34791;52.752;8.346;2023-02-23T03:03:41;149386.25;;;7.67;100.00
48976;BME280;34791;52.752;8.346;2023-02-23T03:06:52;149365.56;;;7.58;100.00
48976;BME280;34791;52.752;8.346;2023-02-23T03:19:21;149341.00;;;7.49;100.00
48976;BME280;34791;52.752;8.346;2023-02-23T03:22:29;149351.38;;;7.53;100.00
48976;BME280;34791;52.752;8.346;2023-02-23T03:25:28;149337.16;;;7.47;100.00
48976;BME280;34791;52.752;8.346;2023-02-23T03:28:28;149339.72;;;7.48;100.00
48976;BME280;34791;52.752;8.346;2023-02-23T03:31:20;149337.16;;;7.47;100.00
48976;BME280;34791;52.752;8.346;2023-02-23T03:34:09;149339.72;;;7.48;100.00
48976;BME280;34791;52.752;8.346;2023-02-23T03:40:00;149341.00;;;7.49;100.00
48976;BME280;34791;52.752;8.346;2023-02-23T03:42:48;149347.50;;;7.51;100.00
48976;BME280;34791;52.752;8.346;2023-02-23T03:45:35;149355.25;;;7.54;100.00
48976;BME280;34791;52.752;8.346;2023-02-23T03:48:21;149351.38;;;7.53;100.00
48976;BME280;34791;52.752;8.346;2023-02-23T03:51:09;149352.66;;;7.53;100.00
48976;BME280;34791;52.752;8.346;2023-02-23T03:54:11;149347.50;;;7.51;100.00
48976;BME280;34791;52.752;8.346;2023-02-23T03:56:58;149351.38;;;7.53;100.00
48976;BME280;34791;52.752;8.346;2023-02-23T03:59:51;149351.38;;;7.53;100.00
48976;BME280;34791;52.752;8.346;2023-02-23T04:02:37;149352.66;;;7.53;100.00
48976;BME280;34791;52.752;8.346;2023-02-23T04:05:22;149356.53;;;7.55;100.00
48976;BME280;34791;52.752;8.346;2023-02-23T04:08:09;149356.53;;;7.55;100.00
48976;BME280;34791;52.752;8.346;2023-02-23T04:11:01;149356.53;;;7.55;100.00
48976;BME280;34791;52.752;8.346;2023-02-23T04:13:53;149344.88;;;7.50;100.00
48976;BME280;34791;52.752;8.346;2023-02-23T04:16:22;149350.09;;;7.52;100.00
48976;BME280;34791;52.752;8.346;2023-02-23T04:18:48;149356.53;;;7.55;100.00
48976;BME280;34791;52.752;8.346;2023-02-23T04:21:13;149360.41;;;7.56;100.00
48976;BME280;34791;52.752;8.346;2023-02-23T04:23:39;149347.50;;;7.51;100.00
48976;BME280;34791;52.752;8.346;2023-02-23T04:26:05;149350.09;;;7.52;100.00
48976;BME280;34791;52.752;8.346;2023-02-23T04:28:31;149339.72;;;7.48;100.00
48976;BME280;34791;52.752;8.346;2023-02-23T04:30:56;149335.84;;;7.47;100.00
48976;BME280;34791;52.752;8.346;2023-02-23T04:33:22;149324.25;;;7.42;100.00
48976;BME280;34791;52.752;8.346;2023-02-23T04:35:51;149319.09;;;7.40;100.00
48976;BME280;34791;52.752;8.346;2023-02-23T04:38:18;149321.66;;;7.41;100.00
48976;BME280;34791;52.752;8.346;2023-02-23T04:40:43;149319.09;;;7.40;100.00
48976;BME280;34791;52.752;8.346;2023-02-23T04:43:12;149326.84;;;7.43;100.00
48976;BME280;34791;52.752;8.346;2023-02-23T04:45:38;149319.09;;;7.40;100.00
48976;BME280;34791;52.752;8.346;2023-02-23T04:48:03;149317.81;;;7.40;100.00
48976;BME280;34791;52.752;8.346;2023-02-23T04:50:29;149313.88;;;7.38;100.00
48976;BME280;34791;52.752;8.346;2023-02-23T04:52:54;149311.31;;;7.37;100.00
48976;BME280;34791;52.752;8.346;2023-02-23T04:55:22;149308.72;;;7.36;100.00
48976;BME280;34791;52.752;8.346;2023-02-23T04:57:50;149319.09;;;7.40;100.00
48976;BME280;34791;52.752;8.346;2023-02-23T05:00:17;149310.00;;;7.37;100.00
48976;BME280;34791;52.752;8.346;2023-02-23T05:02:43;149319.09;;;7.40;100.00
48976;BME280;34791;52.752;8.346;2023-02-23T05:05:09;149322.97;;;7.42;100.00
48976;BME280;34791;52.752;8.346;2023-02-23T05:07:35;149322.97;;;7.42;100.00
48976;BME280;34791;52.752;8.346;2023-02-23T05:10:01;149319.09;;;7.40;100.00
48976;BME280;34791;52.752;8.346;2023-02-23T05:12:26;149319.09;;;7.40;100.00
48976;BME280;34791;52.752;8.346;2023-02-23T05:14:52;149326.84;;;7.43;100.00
48976;BME280;34791;52.752;8.346;2023-02-23T05:17:17;149319.09;;;7.40;100.00
48976;BME280;34791;52.752;8.346;2023-02-23T05:19:43;149319.09;;;7.40;100.00
48976;BME280;34791;52.752;8.346;2023-02-23T05:22:08;149317.81;;;7.40;100.00
48976;BME280;34791;52.752;8.346;2023-02-23T05:24:39;149333.28;;;7.46;100.00
48976;BME280;34791;52.752;8.346;2023-02-23T05:27:08;149321.66;;;7.41;100.00
48976;BME280;34791;52.752;8.346;2023-02-23T05:29:35;149324.25;;;7.42;100.00
48976;BME280;34791;52.752;8.346;2023-02-23T05:32:00;149326.84;;;7.43;100.00
48976;BME280;34791;52.752;8.346;2023-02-23T05:34:26;149329.41;;;7.44;100.00
48976;BME280;34791;52.752;8.346;2023-02-23T05:36:52;149324.25;;;7.42;100.00
48976;BME280;34791;52.752;8.346;2023-02-23T05:39:19;149321.66;;;7.41;100.00
48976;BME280;34791;52.752;8.346;2023-02-23T05:41:44;149316.50;;;7.39;100.00
48976;BME280;34791;52.752;8.346;2023-02-23T05:44:09;149332.00;;;7.45;100.00
48976;BME280;34791;52.752;8.346;2023-02-23T05:46:35;149326.84;;;7.43;100.00
48976;BME280;34791;52.752;8.346;2023-02-23T05:49:01;149310.00;;;7.37;100.00
48976;BME280;34791;52.752;8.346;2023-02-23T05:51:29;149301.00;;;7.33;100.00
48976;BME280;34791;52.752;8.346;2023-02-23T05:53:55;149295.84;;;7.31;100.00
48976;BME280;34791;52.752;8.346;2023-02-23T05:56:20;149315.16;;;7.39;100.00
48976;BME280;34791;52.752;8.346;2023-02-23T05:58:54;149293.25;;;7.30;100.00
48976;BME280;34791;52.752;8.346;2023-02-23T06:01:22;149290.66;;;7.29;100.00
48976;BME280;34791;52.752;8.346;2023-02-23T06:03:48;149282.88;;;7.26;100.00
48976;BME280;34791;52.752;8.346;2023-02-23T06:06:14;149277.72;;;7.24;100.00
48976;BME280;34791;52.752;8.346;2023-02-23T06:08:39;149273.84;;;7.22;100.00
48976;BME280;34791;52.752;8.346;2023-02-23T06:11:05;149264.84;;;7.19;100.00
48976;BME280;34791;52.752;8.346;2023-02-23T06:13:31;149275.16;;;7.23;100.00
48976;BME280;34791;52.752;8.346;2023-02-23T06:15:57;149262.25;;;7.18;100.00
48976;BME280;34791;52.752;8.346;2023-02-23T06:18:24;149259.69;;;7.17;100.00
48976;BME280;34791;52.752;8.346;2023-02-23T06:20:49;149251.88;;;7.14;100.00
48976;BME280;34791;52.752;8.346;2023-02-23T06:23:14;149249.31;;;7.13;100.00
48976;BME280;34791;52.752;8.346;2023-02-23T06:25:41;149249.31;;;7.13;100.00
48976;BME280;34791;52.752;8.346;2023-02-23T06:28:07;149250.59;;;7.13;100.00
48976;BME280;34791;52.752;8.346;2023-02-23T06:30:33;149245.44;;;7.11;100.00
48976;BME280;34791;52.752;8.346;2023-02-23T06:32:59;149236.41;;;7.08;100.00
48976;BME280;34791;52.752;8.346;2023-02-23T06:35:24;149251.88;;;7.14;100.00
48976;BME280;34791;52.752;8.346;2023-02-23T06:37:51;149251.88;;;7.14;100.00
48976;BME280;34791;52.752;8.346;2023-02-23T06:40:18;149244.16;;;7.11;100.00
48976;BME280;34791;52.752;8.346;2023-02-23T06:42:43;149267.41;;;7.20;100.00
48976;BME280;34791;52.752;8.346;2023-02-23T06:45:09;149253.19;;;7.14;100.00
48976;BME280;34791;52.752;8.346;2023-02-23T06:47:35;149259.69;;;7.17;100.00
48976;BME280;34791;52.752;8.346;2023-02-23T06:50:00;149251.88;;;7.14;100.00
48976;BME280;34791;52.752;8.346;2023-02-23T06:52:27;149257.09;;;7.16;100.00
48976;BME280;34791;52.752;8.346;2023-02-23T06:54:52;149272.56;;;7.22;100.00
48976;BME280;34791;52.752;8.346;2023-02-23T06:57:17;149277.72;;;7.24;100.00
48976;BME280;34791;52.752;8.346;2023-02-23T06:59:43;149288.09;;;7.28;100.00
48976;BME280;34791;52.752;8.346;2023-02-23T07:02:11;149272.56;;;7.22;100.00
48976;BME280;34791;52.752;8.346;2023-02-23T07:04:36;149262.25;;;7.18;100.00
48976;BME280;34791;52.752;8.346;2023-02-23T07:07:02;149282.88;;;7.26;100.00
48976;BME280;34791;52.752;8.346;2023-02-23T07:09:27;149284.16;;;7.26;100.00
48976;BME280;34791;52.752;8.346;2023-02-23T07:11:53;149293.25;;;7.30;100.00
48976;BME280;34791;52.752;8.346;2023-02-23T07:14:18;149301.00;;;7.33;100.00
48976;BME280;34791;52.752;8.346;2023-02-23T07:16:43;149306.16;;;7.35;100.00
48976;BME280;34791;52.752;8.346;2023-02-23T07:19:09;149313.88;;;7.38;100.00
48976;BME280;34791;52.752;8.346;2023-02-23T07:21:34;149321.66;;;7.41;100.00
48976;BME280;34791;52.752;8.346;2023-02-23T07:24:00;149324.25;;;7.42;100.00
48976;BME280;34791;52.752;8.346;2023-02-23T07:26:29;149334.56;;;7.46;100.00
48976;BME280;34791;52.752;8.346;2023-02-23T07:28:54;149360.41;;;7.56;100.00
48976;BME280;34791;52.752;8.346;2023-02-23T07:31:20;149368.16;;;7.59;100.00
48976;BME280;34791;52.752;8.346;2023-02-23T07:33:45;149368.16;;;7.59;100.00
48976;BME280;34791;52.752;8.346;2023-02-23T07:36:11;149369.44;;;7.60;100.00
48976;BME280;34791;52.752;8.346;2023-02-23T07:38:36;149387.56;;;7.67;100.00
48976;BME280;34791;52.752;8.346;2023-02-23T07:41:03;149403.03;;;7.73;100.00
48976;BME280;34791;52.752;8.346;2023-02-23T07:43:28;149378.53;;;7.63;100.00
48976;BME280;34791;52.752;8.346;2023-02-23T07:46:00;149404.31;;;7.74;100.00
48976;BME280;34791;52.752;8.346;2023-02-23T07:48:26;149434.03;;;7.85;100.00
48976;BME280;34791;52.752;8.346;2023-02-23T07:50:51;149450.84;;;7.92;100.00
48976;BME280;34791;52.752;8.346;2023-02-23T07:53:17;149448.28;;;7.91;100.00
48976;BME280;34791;52.752;8.346;2023-02-23T07:55:45;149457.31;;;7.94;100.00
48976;BME280;34791;52.752;8.346;2023-02-23T07:58:11;149448.28;;;7.91;100.00
48976;BME280;34791;52.752;8.346;2023-02-23T08:00:39;149479.28;;;8.03;100.00
48976;BME280;34791;52.752;8.346;2023-02-23T08:03:05;149476.72;;;8.02;100.00
48976;BME280;34791;52.752;8.346;2023-02-23T08:05:31;149489.63;;;8.07;100.00
48976;BME280;34791;52.752;8.346;2023-02-23T08:07:57;149471.56;;;8.00;100.00
48976;BME280;34791;52.752;8.346;2023-02-23T08:10:24;149489.63;;;8.07;100.00
48976;BME280;34791;52.752;8.346;2023-02-23T08:12:49;149489.63;;;8.07;100.00
48976;BME280;34791;52.752;8.346;2023-02-23T08:15:15;149503.88;;;8.13;100.00
48976;BME280;34791;52.752;8.346;2023-02-23T08:17:41;149487.03;;;8.06;100.00
48976;BME280;34791;52.752;8.346;2023-02-23T08:20:08;149448.28;;;7.91;100.00
48976;BME280;34791;52.752;8.346;2023-02-23T08:22:34;149478.00;;;8.03;100.00
48976;BME280;34791;52.752;8.346;2023-02-23T08:24:59;149484.44;;;8.05;100.00
48976;BME280;34791;52.752;8.346;2023-02-23T08:27:26;149518.06;;;8.18;100.00
48976;BME280;34791;52.752;8.346;2023-02-23T08:29:54;149466.34;;;7.98;100.00
48976;BME280;34791;52.752;8.346;2023-02-23T08:32:20;149492.19;;;8.08;100.00
48976;BME280;34791;52.752;8.346;2023-02-23T08:34:46;149499.94;;;8.11;100.00
48976;BME280;34791;52.752;8.346;2023-02-23T08:37:12;149507.72;;;8.14;100.00
48976;BME280;34791;52.752;8.346;2023-02-23T08:39:37;149487.03;;;8.06;100.00
48976;BME280;34791;52.752;8.346;2023-02-23T08:42:03;149510.31;;;8.15;100.00
48976;BME280;34791;52.752;8.346;2023-02-23T08:44:29;149515.47;;;8.17;100.00
48976;BME280;34791;52.752;8.346;2023-02-23T08:46:55;149515.47;;;8.17;100.00
48976;BME280;34791;52.752;8.346;2023-02-23T08:49:22;149497.34;;;8.10;100.00
48976;BME280;34791;52.752;8.346;2023-02-23T08:51:48;149499.94;;;8.11;100.00
48976;BME280;34791;52.752;8.346;2023-02-23T08:54:14;149461.19;;;7.96;100.00
48976;BME280;34791;52.752;8.346;2023-02-23T08:56:40;149507.72;;;8.14;100.00
48976;BME280;34791;52.752;8.346;2023-02-23T08:59:07;149515.47;;;8.17;100.00
48976;BME280;34791;52.752;8.346;2023-02-23T09:01:32;149523.22;;;8.20;100.00
48976;BME280;34791;52.752;8.346;2023-02-23T09:03:58;149543.91;;;8.29;100.00
48976;BME280;34791;52.752;8.346;2023-02-23T09:06:24;149543.91;;;8.29;100.00
48976;BME280;34791;52.752;8.346;2023-02-23T09:08:51;149511.59;;;8.16;100.00
48976;BME280;34791;52.752;8.346;2023-02-23T09:11:18;149496.06;;;8.10;100.00
48976;BME280;34791;52.752;8.346;2023-02-23T09:13:43;149494.78;;;8.09;100.00
48976;BME280;34791;52.752;8.346;2023-02-23T09:16:09;149492.19;;;8.08;100.00
48976;BME280;34791;52.752;8.346;2023-02-23T09:18:35;149484.44;;;8.05;100.00
48976;BME280;34791;52.752;8.346;2023-02-23T09:21:05;149467.63;;;7.99;100.00
48976;BME280;34791;52.752;8.346;2023-02-23T09:23:33;149440.53;;;7.88;100.00
48976;BME280;34791;52.752;8.346;2023-02-23T09:26:06;149489.63;;;8.07;100.00
48976;BME280;34791;52.752;8.346;2023-02-23T09:28:32;149466.34;;;7.98;100.00
48976;BME280;34791;52.752;8.346;2023-02-23T09:31:03;149489.63;;;8.07;100.00
48976;BME280;34791;52.752;8.346;2023-02-23T09:33:29;149497.34;;;8.10;100.00
48976;BME280;34791;52.752;8.346;2023-02-23T09:35:54;149515.47;;;8.17;100.00
48976;BME280;34791;52.752;8.346;2023-02-23T09:38:20;149502.56;;;8.12;100.00
48976;BME280;34791;52.752;8.346;2023-02-23T09:40:47;149523.22;;;8.20;100.00
48976;BME280;34791;52.752;8.346;2023-02-23T09:43:41;149556.81;;;8.34;100.00
48976;BME280;34791;52.752;8.346;2023-02-23T09:46:33;149551.66;;;8.32;100.00
48976;BME280;34791;52.752;8.346;2023-02-23T09:49:04;149510.31;;;8.15;100.00
48976;BME280;34791;52.752;8.346;2023-02-23T09:51:36;149506.44;;;8.14;100.00
48976;BME280;34791;52.752;8.346;2023-02-23T09:54:03;149520.63;;;8.19;100.00
48976;BME280;34791;52.752;8.346;2023-02-23T09:56:36;149520.63;;;8.19;100.00
48976;BME280;34791;52.752;8.346;2023-02-23T09:59:04;149516.75;;;8.18;100.00
48976;BME280;34791;52.752;8.346;2023-02-23T10:04:30;149505.16;;;8.13;100.00
48976;BME280;34791;52.752;8.346;2023-02-23T10:07:10;149555.53;;;8.33;100.00
48976;BME280;34791;52.752;8.346;2023-02-23T10:15:32;149599.56;;;8.50;100.00
48976;BME280;34791;52.752;8.346;2023-02-23T10:18:24;149580.16;;;8.43;100.00
48976;BME280;34791;52.752;8.346;2023-02-23T10:21:04;149589.19;;;8.46;100.00
48976;BME280;34791;52.752;8.346;2023-02-23T10:23:39;149611.19;;;8.55;100.00
48976;BME280;34791;52.752;8.346;2023-02-23T10:26:07;149618.94;;;8.58;100.00
48976;BME280;34791;52.752;8.346;2023-02-23T10:28:39;149597.00;;;8.49;100.00
48976;BME280;34791;52.752;8.346;2023-02-23T10:33:53;149575.00;;;8.41;100.00
48976;BME280;34791;52.752;8.346;2023-02-23T10:36:30;149590.47;;;8.47;100.00
48976;BME280;34791;52.752;8.346;2023-02-23T10:38:59;149600.84;;;8.51;100.00
48976;BME280;34791;52.752;8.346;2023-02-23T10:41:24;149590.47;;;8.47;100.00
48976;BME280;34791;52.752;8.346;2023-02-23T10:43:49;149620.22;;;8.59;100.00
48976;BME280;34791;52.752;8.346;2023-02-23T10:46:21;149669.38;;;8.78;100.00
48976;BME280;34791;52.752;8.346;2023-02-23T10:48:49;149688.78;;;8.86;100.00
48976;BME280;34791;52.752;8.346;2023-02-23T10:51:21;149695.25;;;8.88;100.00
48976;BME280;34791;52.752;8.346;2023-02-23T10:53:49;149686.22;;;8.85;100.00
48976;BME280;34791;52.752;8.346;2023-02-23T10:56:16;149673.25;;;8.79;100.00
48976;BME280;34791;52.752;8.346;2023-02-23T10:58:45;149683.59;;;8.84;100.00
48976;BME280;34791;52.752;8.346;2023-02-23T11:01:55;149644.78;;;8.68;100.00
48976;BME280;34791;52.752;8.346;2023-02-23T11:04:24;149660.34;;;8.74;100.00
48976;BME280;34791;52.752;8.346;2023-02-23T11:07:04;149662.94;;;8.75;100.00
48976;BME280;34791;52.752;8.346;2023-02-23T11:09:31;149656.47;;;8.73;100.00
48976;BME280;34791;52.752;8.346;2023-02-23T11:12:03;149681.00;;;8.82;100.00
48976;BME280;34791;52.752;8.346;2023-02-23T11:14:41;149647.38;;;8.69;100.00
48976;BME280;34791;52.752;8.346;2023-02-23T11:17:54;149678.41;;;8.81;100.00
48976;BME280;34791;52.752;8.346;2023-02-23T11:22:41;149621.50;;;8.59;100.00
48976;BME280;34791;52.752;8.346;2023-02-23T11:25:24;149599.56;;;8.50;100.00
48976;BME280;34791;52.752;8.346;2023-02-23T11:27:52;149563.38;;;8.36;100.00
48976;BME280;34791;52.752;8.346;2023-02-23T11:30:23;149594.41;;;8.48;100.00
48976;BME280;34791;52.752;8.346;2023-02-23T11:32:57;149590.47;;;8.47;100.00
48976;BME280;34791;52.752;8.346;2023-02-23T11:37:48;149635.75;;;8.65;100.00
48976;BME280;34791;52.752;8.346;2023-02-23T11:42:51;149602.16;;;8.51;100.00
48976;BME280;34791;52.752;8.346;2023-02-23T11:45:18;149618.94;;;8.58;100.00
48976;BME280;34791;52.752;8.346;2023-02-23T11:47:50;149590.47;;;8.47;100.00
48976;BME280;34791;52.752;8.346;2023-02-23T11:50:23;149624.13;;;8.60;100.00
48976;BME280;34791;52.752;8.346;2023-02-23T11:53:00;149590.47;;;8.47;100.00
48976;BME280;34791;52.752;8.346;2023-02-23T11:55:29;149533.59;;;8.25;100.00
48976;BME280;34791;52.752;8.346;2023-02-23T11:58:21;149569.81;;;8.39;100.00
48976;BME280;34791;52.752;8.346;2023-02-23T12:00:58;149552.94;;;8.32;100.00
48976;BME280;34791;52.752;8.346;2023-02-23T12:03:25;149585.31;;;8.45;100.00
48976;BME280;34791;52.752;8.346;2023-02-23T12:05:53;149540.03;;;8.27;100.00
48976;BME280;34791;52.752;8.346;2023-02-23T12:08:42;149554.25;;;8.33;100.00
48976;BME280;34791;52.752;8.346;2023-02-23T12:11:15;149536.16;;;8.26;100.00
48976;BME280;34791;52.752;8.346;2023-02-23T12:13:47;149516.75;;;8.18;100.00
48976;BME280;34791;52.752;8.346;2023-02-23T12:16:22;149532.28;;;8.24;100.00
48976;BME280;34791;52.752;8.346;2023-02-23T12:21:54;149564.66;;;8.37;100.00
48976;BME280;34791;52.752;8.346;2023-02-23T12:24:37;149582.75;;;8.44;100.00
48976;BME280;34791;52.752;8.346;2023-02-23T12:27:13;149558.16;;;8.34;100.00
48976;BME280;34791;52.752;8.346;2023-02-23T12:33:14;149564.66;;;8.37;100.00
48976;BME280;34791;52.752;8.346;2023-02-23T12:40:45;149536.16;;;8.26;100.00
48976;BME280;34791;52.752;8.346;2023-02-23T12:43:23;149552.94;;;8.32;100.00
48976;BME280;34791;52.752;8.346;2023-02-23T12:45:56;149551.66;;;8.32;100.00
48976;BME280;34791;52.752;8.346;2023-02-23T12:50:56;149595.69;;;8.49;100.00
48976;BME280;34791;52.752;8.346;2023-02-23T12:53:33;149556.81;;;8.34;100.00
48976;BME280;34791;52.752;8.346;2023-02-23T12:58:49;149571.13;;;8.39;100.00
48976;BME280;34791;52.752;8.346;2023-02-23T13:01:28;149595.69;;;8.49;100.00
48976;BME280;34791;52.752;8.346;2023-02-23T13:15:11;149546.50;;;8.30;100.00
48976;BME280;34791;52.752;8.346;2023-02-23T13:18:21;149547.78;;;8.30;100.00
48976;BME280;34791;52.752;8.346;2023-02-23T13:24:00;149540.03;;;8.27;100.00
48976;BME280;34791;52.752;8.346;2023-02-23T13:28:55;149484.44;;;8.05;100.00
48976;BME280;34791;52.752;8.346;2023-02-23T13:31:28;149510.31;;;8.15;100.00
48976;BME280;34791;52.752;8.346;2023-02-23T13:33:56;149546.50;;;8.30;100.00
48976;BME280;34791;52.752;8.346;2023-02-23T13:36:22;149577.56;;;8.42;100.00
48976;BME280;34791;52.752;8.346;2023-02-23T13:42:27;149608.59;;;8.54;100.00
48976;BME280;34791;52.752;8.346;2023-02-23T13:50:35;149598.28;;;8.50;100.00
48976;BME280;34791;52.752;8.346;2023-02-23T13:53:30;149562.03;;;8.36;100.00
48976;BME280;34791;52.752;8.346;2023-02-23T13:56:03;149568.53;;;8.38;100.00
48976;BME280;34791;52.752;8.346;2023-02-23T13:58:31;149593.09;;;8.48;100.00
48976;BME280;34791;52.752;8.346;2023-02-23T14:01:07;149567.25;;;8.38;100.00
48976;BME280;34791;52.752;8.346;2023-02-23T14:03:40;149546.50;;;8.30;100.00
48976;BME280;34791;52.752;8.346;2023-02-23T14:06:06;149541.34;;;8.28;100.00
48976;BME280;34791;52.752;8.346;2023-02-23T14:08:36;149545.22;;;8.29;100.00
48976;BME280;34791;52.752;8.346;2023-02-23T14:11:04;149502.56;;;8.12;100.00
48976;BME280;34791;52.752;8.346;2023-02-23T14:13:32;149490.91;;;8.08;100.00
48976;BME280;34791;52.752;8.346;2023-02-23T14:16:16;149511.59;;;8.16;100.00
48976;BME280;34791;52.752;8.346;2023-02-23T14:21:55;149456.00;;;7.94;100.00
48976;BME280;34791;52.752;8.346;2023-02-23T14:24:24;149487.03;;;8.06;100.00
48976;BME280;34791;52.752;8.346;2023-02-23T14:30:15;149525.81;;;8.21;100.00
48976;BME280;34791;52.752;8.346;2023-02-23T14:32:46;149478.00;;;8.03;100.00
48976;BME280;34791;52.752;8.346;2023-02-23T14:38:10;149543.91;;;8.29;100.00
48976;BME280;34791;52.752;8.346;2023-02-23T14:40:41;149573.69;;;8.40;100.00
48976;BME280;34791;52.752;8.346;2023-02-23T14:46:02;149593.09;;;8.48;100.00
48976;BME280;34791;52.752;8.346;2023-02-23T14:48:32;149569.81;;;8.39;100.00
48976;BME280;34791;52.752;8.346;2023-02-23T14:51:20;149602.16;;;8.51;100.00
48976;BME280;34791;52.752;8.346;2023-02-23T14:53:46;149630.59;;;8.63;100.00
48976;BME280;34791;52.752;8.346;2023-02-23T14:56:23;149631.88;;;8.63;100.00
48976;BME280;34791;52.752;8.346;2023-02-23T14:58:53;149640.94;;;8.67;100.00
48976;BME280;34791;52.752;8.346;2023-02-23T15:01:36;149644.78;;;8.68;100.00